sensor_id;sensor_type;location;lat;lon;timestamp;temperature;humidity
18073;DHT22;9161;47.348;9.648;2024-03-08T00:04:29;2.30;99.90
18073;DHT22;9161;47.348;9.648;2024-03-08T00:09:32;2.50;99.90
18073;DHT22;9161;47.348;9.648;2024-03-08T00:14:38;2.60;99.90
18073;DHT22;9161;47.348;9.648;2024-03-08T00:19:40;2.60;99.90
18073;DHT22;9161;47.348;9.648;2024-03-08T00:24:42;2.40;99.90
18073;DHT22;9161;47.348;9.648;2024-03-08T00:29:46;2.20;99.90
18073;DHT22;9161;47.348;9.648;2024-03-08T00:34:48;2.10;99.90
18073;DHT22;9161;47.348;9.648;2024-03-08T00:39:52;2.30;99.90
18073;DHT22;9161;47.348;9.648;2024-03-08T00:44:56;1.90;99.90
18073;DHT22;9161;47.348;9.648;2024-03-08T00:49:59;1.70;99.90
18073;DHT22;9161;47.348;9.648;2024-03-08T00:55:05;1.70;99.90
18073;DHT22;9161;47.348;9.648;2024-03-08T01:00:11;1.80;99.90
18073;DHT22;9161;47.348;9.648;2024-03-08T01:05:14;1.70;99.90
18073;DHT22;9161;47.348;9.648;2024-03-08T01:10:17;1.70;99.90
18073;DHT22;9161;47.348;9.648;2024-03-08T01:15:21;1.50;99.90
18073;DHT22;9161;47.348;9.648;2024-03-08T01:20:23;1.40;99.90
18073;DHT22;9161;47.348;9.648;2024-03-08T01:25:25;1.60;99.90
18073;DHT22;9161;47.348;9.648;2024-03-08T01:30:29;1.30;99.90
18073;DHT22;9161;47.348;9.648;2024-03-08T01:35:33;1.10;99.90
18073;DHT22;9161;47.348;9.648;2024-03-08T01:40:35;1.50;99.90
18073;DHT22;9161;47.348;9.648;2024-03-08T01:45:38;1.60;99.90
18073;DHT22;9161;47.348;9.648;2024-03-08T01:50:41;1.50;99.90
18073;DHT22;9161;47.348;9.648;2024-03-08T01:55:45;1.20;99.90
18073;DHT22;9161;47.348;9.648;2024-03-08T02:00:49;1.50;99.90
18073;DHT22;9161;47.348;9.648;2024-03-08T02:05:52;1.40;99.90
18073;DHT22;9161;47.348;9.648;2024-03-08T02:10:55;1.30;99.90
18073;DHT22;9161;47.348;9.648;2024-03-08T02:16:01;1.00;99.90
18073;DHT22;9161;47.348;9.648;2024-03-08T02:21:08;1.00;99.90
18073;DHT22;9161;47.348;9.648;2024-03-08T02:26:10;0.90;99.90
18073;DHT22;9161;47.348;9.648;2024-03-08T02:31:13;0.60;99.90
18073;DHT22;9161;47.348;9.648;2024-03-08T02:36:16;0.60;99.90
18073;DHT22;9161;47.348;9.648;2024-03-08T02:41:18;0.50;99.90
18073;DHT22;9161;47.348;9.648;2024-03-08T02:46:21;0.90;99.90
18073;DHT22;9161;47.348;9.648;2024-03-08T02:51:24;0.60;99.90
18073;DHT22;9161;47.348;9.648;2024-03-08T02:56:28;0.60;99.90
18073;DHT22;9161;47.348;9.648;2024-03-08T03:01:30;0.70;99.90
18073;DHT22;9161;47.348;9.648;2024-03-08T03:06:35;0.50;99.90
18073;DHT22;9161;47.348;9.648;2024-03-08T03:11:37;0.30;99.90
18073;DHT22;9161;47.348;9.648;2024-03-08T03:16:40;0.20;99.90
18073;DHT22;9161;47.348;9.648;2024-03-08T03:21:46;0.20;99.90
18073;DHT22;9161;47.348;9.648;2024-03-08T03:26:48;0.10;99.90
18073;DHT22;9161;47.348;9.648;2024-03-08T03:31:50;0.10;99.90
18073;DHT22;9161;47.348;9.648;2024-03-08T03:36:55;0.20;99.90
18073;DHT22;9161;47.348;9.648;2024-03-08T03:41:57;-0.10;99.90
18073;DHT22;9161;47.348;9.648;2024-03-08T03:47:00;-0.10;99.90
18073;DHT22;9161;47.348;9.648;2024-03-08T03:52:04;-0.10;99.90
18073;DHT22;9161;47.348;9.648;2024-03-08T03:57:06;0.00;99.90
18073;DHT22;9161;47.348;9.648;2024-03-08T04:02:09;-0.10;99.90
18073;DHT22;9161;47.348;9.648;2024-03-08T04:07:12;0.30;99.90
18073;DHT22;9161;47.348;9.648;2024-03-08T04:12:15;0.00;99.90
18073;DHT22;9161;47.348;9.648;2024-03-08T04:17:17;0.10;99.90
18073;DHT22;9161;47.348;9.648;2024-03-08T04:22:21;-0.10;99.90
18073;DHT22;9161;47.348;9.648;2024-03-08T04:27:24;0.00;99.90
18073;DHT22;9161;47.348;9.648;2024-03-08T04:32:26;0.00;99.90
18073;DHT22;9161;47.348;9.648;2024-03-08T04:37:32;-0.10;99.90
18073;DHT22;9161;47.348;9.648;2024-03-08T04:42:35;-0.30;99.90
18073;DHT22;9161;47.348;9.648;2024-03-08T04:47:39;-0.30;99.90
18073;DHT22;9161;47.348;9.648;2024-03-08T04:52:43;-0.50;99.90
18073;DHT22;9161;47.348;9.648;2024-03-08T04:57:45;-0.50;99.90
18073;DHT22;9161;47.348;9.648;2024-03-08T05:02:47;-0.50;99.90
18073;DHT22;9161;47.348;9.648;2024-03-08T05:07:56;-0.60;99.90
18073;DHT22;9161;47.348;9.648;2024-03-08T05:12:58;-0.60;99.90
18073;DHT22;9161;47.348;9.648;2024-03-08T05:18:00;-0.60;99.90
18073;DHT22;9161;47.348;9.648;2024-03-08T05:23:05;-0.60;99.90
18073;DHT22;9161;47.348;9.648;2024-03-08T05:28:07;-0.30;99.90
18073;DHT22;9161;47.348;9.648;2024-03-08T05:33:10;0.00;99.90
18073;DHT22;9161;47.348;9.648;2024-03-08T05:38:16;-0.30;99.90
18073;DHT22;9161;47.348;9.648;2024-03-08T05:43:18;-0.20;99.90
18073;DHT22;9161;47.348;9.648;2024-03-08T05:48:20;0.00;99.90
18073;DHT22;9161;47.348;9.648;2024-03-08T05:53:24;0.20;99.90
18073;DHT22;9161;47.348;9.648;2024-03-08T05:58:27;0.20;99.90
18073;DHT22;9161;47.348;9.648;2024-03-08T06:03:30;0.40;99.90
18073;DHT22;9161;47.348;9.648;2024-03-08T06:08:34;0.50;99.90
18073;DHT22;9161;47.348;9.648;2024-03-08T06:13:36;0.60;99.90
18073;DHT22;9161;47.348;9.648;2024-03-08T06:18:39;0.60;99.90
18073;DHT22;9161;47.348;9.648;2024-03-08T06:23:44;0.50;99.90
18073;DHT22;9161;47.348;9.648;2024-03-08T06:28:46;0.50;99.90
18073;DHT22;9161;47.348;9.648;2024-03-08T06:33:48;0.60;99.90
18073;DHT22;9161;47.348;9.648;2024-03-08T06:38:53;0.50;99.90
18073;DHT22;9161;47.348;9.648;2024-03-08T06:43:55;0.70;99.90
18073;DHT22;9161;47.348;9.648;2024-03-08T06:49:00;0.70;99.90
18073;DHT22;9161;47.348;9.648;2024-03-08T06:54:07;0.60;99.90
18073;DHT22;9161;47.348;9.648;2024-03-08T06:59:10;0.80;99.90
18073;DHT22;9161;47.348;9.648;2024-03-08T07:04:14;0.90;99.90
18073;DHT22;9161;47.348;9.648;2024-03-08T07:09:18;1.20;99.90
18073;DHT22;9161;47.348;9.648;2024-03-08T07:14:21;1.40;99.90
18073;DHT22;9161;47.348;9.648;2024-03-08T07:19:23;1.70;99.90
18073;DHT22;9161;47.348;9.648;2024-03-08T07:24:27;2.10;99.90
18073;DHT22;9161;47.348;9.648;2024-03-08T07:29:40;2.30;99.90
18073;DHT22;9161;47.348;9.648;2024-03-08T07:34:42;2.40;99.90
18073;DHT22;9161;47.348;9.648;2024-03-08T07:39:45;2.40;99.90
18073;DHT22;9161;47.348;9.648;2024-03-08T07:44:47;2.60;99.90
18073;DHT22;9161;47.348;9.648;2024-03-08T07:49:51;3.00;99.90
18073;DHT22;9161;47.348;9.648;2024-03-08T07:54:56;3.90;99.90
18073;DHT22;9161;47.348;9.648;2024-03-08T07:59:58;4.70;99.90
18073;DHT22;9161;47.348;9.648;2024-03-08T08:05:03;5.00;99.90
18073;DHT22;9161;47.348;9.648;2024-03-08T08:10:08;5.70;99.90
18073;DHT22;9161;47.348;9.648;2024-03-08T08:15:17;6.10;99.90
18073;DHT22;9161;47.348;9.648;2024-03-08T08:20:19;5.90;99.90
18073;DHT22;9161;47.348;9.648;2024-03-08T08:25:24;7.10;99.90
18073;DHT22;9161;47.348;9.648;2024-03-08T08:30:26;7.50;99.90
18073;DHT22;9161;47.348;9.648;2024-03-08T08:35:29;7.70;99.90
18073;DHT22;9161;47.348;9.648;2024-03-08T08:40:33;8.40;99.90
18073;DHT22;9161;47.348;9.648;2024-03-08T08:45:36;7.90;99.90
18073;DHT22;9161;47.348;9.648;2024-03-08T08:50:39;8.00;99.90
18073;DHT22;9161;47.348;9.648;2024-03-08T08:55:43;8.10;99.90
18073;DHT22;9161;47.348;9.648;2024-03-08T09:00:46;7.70;99.90
18073;DHT22;9161;47.348;9.648;2024-03-08T09:05:48;7.70;99.90
18073;DHT22;9161;47.348;9.648;2024-03-08T09:10:52;7.70;99.90
18073;DHT22;9161;47.348;9.648;2024-03-08T09:15:54;7.90;99.90
18073;DHT22;9161;47.348;9.648;2024-03-08T09:20:57;7.90;99.90
18073;DHT22;9161;47.348;9.648;2024-03-08T09:26:00;7.90;99.90
18073;DHT22;9161;47.348;9.648;2024-03-08T09:31:10;8.40;99.90
18073;DHT22;9161;47.348;9.648;2024-03-08T09:36:13;9.10;99.90
18073;DHT22;9161;47.348;9.648;2024-03-08T09:41:17;9.50;99.90
18073;DHT22;9161;47.348;9.648;2024-03-08T09:46:19;9.30;99.90
18073;DHT22;9161;47.348;9.648;2024-03-08T09:51:28;7.90;99.90
18073;DHT22;9161;47.348;9.648;2024-03-08T09:56:33;8.00;99.90
18073;DHT22;9161;47.348;9.648;2024-03-08T10:01:36;8.60;99.90
18073;DHT22;9161;47.348;9.648;2024-03-08T10:06:40;8.50;99.90
18073;DHT22;9161;47.348;9.648;2024-03-08T10:11:44;7.70;99.90
18073;DHT22;9161;47.348;9.648;2024-03-08T10:16:47;8.60;99.90
18073;DHT22;9161;47.348;9.648;2024-03-08T10:21:49;9.20;99.90
18073;DHT22;9161;47.348;9.648;2024-03-08T10:26:58;9.30;99.90
18073;DHT22;9161;47.348;9.648;2024-03-08T10:32:02;9.20;99.90
18073;DHT22;9161;47.348;9.648;2024-03-08T10:37:07;9.50;99.90
18073;DHT22;9161;47.348;9.648;2024-03-08T10:42:16;9.90;99.90
18073;DHT22;9161;47.348;9.648;2024-03-08T10:47:26;10.50;99.90
18073;DHT22;9161;47.348;9.648;2024-03-08T10:52:31;10.80;99.90
18073;DHT22;9161;47.348;9.648;2024-03-08T10:57:38;11.80;99.90
18073;DHT22;9161;47.348;9.648;2024-03-08T11:02:43;11.70;99.90
18073;DHT22;9161;47.348;9.648;2024-03-08T11:07:45;11.90;99.90
18073;DHT22;9161;47.348;9.648;2024-03-08T11:12:50;13.40;99.90
18073;DHT22;9161;47.348;9.648;2024-03-08T11:17:52;14.60;99.90
18073;DHT22;9161;47.348;9.648;2024-03-08T11:23:00;15.80;99.90
18073;DHT22;9161;47.348;9.648;2024-03-08T11:28:14;14.70;99.90
18073;DHT22;9161;47.348;9.648;2024-03-08T11:33:19;15.20;99.90
18073;DHT22;9161;47.348;9.648;2024-03-08T11:38:22;15.50;99.90
18073;DHT22;9161;47.348;9.648;2024-03-08T11:43:25;15.60;99.90
18073;DHT22;9161;47.348;9.648;2024-03-08T11:48:27;17.00;99.90
18073;DHT22;9161;47.348;9.648;2024-03-08T11:53:30;17.10;99.90
18073;DHT22;9161;47.348;9.648;2024-03-08T11:58:36;17.50;99.90
18073;DHT22;9161;47.348;9.648;2024-03-08T12:03:39;19.00;99.90
18073;DHT22;9161;47.348;9.648;2024-03-08T12:08:43;19.50;99.90
18073;DHT22;9161;47.348;9.648;2024-03-08T12:13:51;20.10;99.90
18073;DHT22;9161;47.348;9.648;2024-03-08T12:18:55;19.80;99.90
18073;DHT22;9161;47.348;9.648;2024-03-08T12:24:06;19.20;99.90
18073;DHT22;9161;47.348;9.648;2024-03-08T12:29:27;17.30;99.90
18073;DHT22;9161;47.348;9.648;2024-03-08T12:34:30;18.80;99.90
18073;DHT22;9161;47.348;9.648;2024-03-08T12:39:33;20.40;99.90
18073;DHT22;9161;47.348;9.648;2024-03-08T12:44:40;19.60;99.90
18073;DHT22;9161;47.348;9.648;2024-03-08T12:49:44;18.30;99.90
18073;DHT22;9161;47.348;9.648;2024-03-08T12:54:46;18.80;99.90
18073;DHT22;9161;47.348;9.648;2024-03-08T12:59:51;19.90;99.90
18073;DHT22;9161;47.348;9.648;2024-03-08T13:04:55;19.60;99.90
18073;DHT22;9161;47.348;9.648;2024-03-08T13:09:58;19.90;99.60
18073;DHT22;9161;47.348;9.648;2024-03-08T13:15:02;20.80;99.90
18073;DHT22;9161;47.348;9.648;2024-03-08T13:20:07;20.90;99.70
18073;DHT22;9161;47.348;9.648;2024-03-08T13:25:10;19.60;99.90
18073;DHT22;9161;47.348;9.648;2024-03-08T13:30:15;21.10;98.60
18073;DHT22;9161;47.348;9.648;2024-03-08T13:35:19;19.80;98.70
18073;DHT22;9161;47.348;9.648;2024-03-08T13:40:26;19.60;99.50
18073;DHT22;9161;47.348;9.648;2024-03-08T13:45:30;20.40;99.90
18073;DHT22;9161;47.348;9.648;2024-03-08T13:50:34;22.30;97.70
18073;DHT22;9161;47.348;9.648;2024-03-08T13:55:37;20.80;96.90
18073;DHT22;9161;47.348;9.648;2024-03-08T14:00:43;21.60;97.20
18073;DHT22;9161;47.348;9.648;2024-03-08T14:05:49;21.70;95.50
18073;DHT22;9161;47.348;9.648;2024-03-08T14:10:51;19.70;96.00
18073;DHT22;9161;47.348;9.648;2024-03-08T14:15:56;19.20;97.10
18073;DHT22;9161;47.348;9.648;2024-03-08T14:20:59;19.70;96.90
18073;DHT22;9161;47.348;9.648;2024-03-08T14:26:02;21.40;96.10
18073;DHT22;9161;47.348;9.648;2024-03-08T14:31:07;21.30;95.70
18073;DHT22;9161;47.348;9.648;2024-03-08T14:36:12;22.30;94.20
18073;DHT22;9161;47.348;9.648;2024-03-08T14:41:14;21.00;93.80
18073;DHT22;9161;47.348;9.648;2024-03-08T14:46:17;21.70;94.90
18073;DHT22;9161;47.348;9.648;2024-03-08T14:51:21;23.40;93.40
18073;DHT22;9161;47.348;9.648;2024-03-08T14:56:27;21.00;95.00
18073;DHT22;9161;47.348;9.648;2024-03-08T15:01:33;22.20;93.50
18073;DHT22;9161;47.348;9.648;2024-03-08T15:06:37;22.70;93.20
18073;DHT22;9161;47.348;9.648;2024-03-08T15:11:39;22.60;92.60
18073;DHT22;9161;47.348;9.648;2024-03-08T15:16:44;23.30;92.10
18073;DHT22;9161;47.348;9.648;2024-03-08T15:21:49;21.20;92.40
18073;DHT22;9161;47.348;9.648;2024-03-08T15:26:51;22.40;92.90
18073;DHT22;9161;47.348;9.648;2024-03-08T15:31:57;19.20;94.10
18073;DHT22;9161;47.348;9.648;2024-03-08T15:37:00;21.50;93.40
18073;DHT22;9161;47.348;9.648;2024-03-08T15:42:03;21.80;92.50
18073;DHT22;9161;47.348;9.648;2024-03-08T15:47:07;20.50;92.50
18073;DHT22;9161;47.348;9.648;2024-03-08T15:52:12;21.30;92.60
18073;DHT22;9161;47.348;9.648;2024-03-08T15:57:14;20.90;93.20
18073;DHT22;9161;47.348;9.648;2024-03-08T16:02:20;20.90;93.00
18073;DHT22;9161;47.348;9.648;2024-03-08T16:07:24;20.30;93.70
18073;DHT22;9161;47.348;9.648;2024-03-08T16:12:27;19.00;93.90
18073;DHT22;9161;47.348;9.648;2024-03-08T16:17:33;17.50;96.00
18073;DHT22;9161;47.348;9.648;2024-03-08T16:22:35;16.90;96.20
18073;DHT22;9161;47.348;9.648;2024-03-08T16:27:37;15.90;97.90
18073;DHT22;9161;47.348;9.648;2024-03-08T16:32:43;13.40;99.90
18073;DHT22;9161;47.348;9.648;2024-03-08T16:37:49;11.80;99.90
18073;DHT22;9161;47.348;9.648;2024-03-08T16:42:53;10.70;99.90
18073;DHT22;9161;47.348;9.648;2024-03-08T16:47:58;9.90;99.90
18073;DHT22;9161;47.348;9.648;2024-03-08T16:53:01;9.30;99.90
18073;DHT22;9161;47.348;9.648;2024-03-08T16:58:05;8.80;99.90
18073;DHT22;9161;47.348;9.648;2024-03-08T17:03:10;8.40;99.90
18073;DHT22;9161;47.348;9.648;2024-03-08T17:08:14;7.90;99.90
18073;DHT22;9161;47.348;9.648;2024-03-08T17:13:18;7.70;99.90
18073;DHT22;9161;47.348;9.648;2024-03-08T17:18:22;7.30;99.90
18073;DHT22;9161;47.348;9.648;2024-03-08T17:23:26;7.10;99.90
18073;DHT22;9161;47.348;9.648;2024-03-08T17:28:29;6.80;99.90
18073;DHT22;9161;47.348;9.648;2024-03-08T17:33:33;6.60;99.90
18073;DHT22;9161;47.348;9.648;2024-03-08T17:38:38;6.30;99.90
18073;DHT22;9161;47.348;9.648;2024-03-08T17:43:49;6.40;99.90
18073;DHT22;9161;47.348;9.648;2024-03-08T17:48:53;6.20;99.90
18073;DHT22;9161;47.348;9.648;2024-03-08T17:53:55;6.00;99.90
18073;DHT22;9161;47.348;9.648;2024-03-08T17:58:59;5.90;99.90
18073;DHT22;9161;47.348;9.648;2024-03-08T18:04:04;5.70;99.90
18073;DHT22;9161;47.348;9.648;2024-03-08T18:09:07;5.60;99.90
18073;DHT22;9161;47.348;9.648;2024-03-08T18:14:11;5.60;99.90
18073;DHT22;9161;47.348;9.648;2024-03-08T18:19:15;5.30;99.90
18073;DHT22;9161;47.348;9.648;2024-03-08T18:24:20;5.20;99.90
18073;DHT22;9161;47.348;9.648;2024-03-08T18:29:22;5.30;99.90
18073;DHT22;9161;47.348;9.648;2024-03-08T18:34:27;5.20;99.90
18073;DHT22;9161;47.348;9.648;2024-03-08T18:39:31;5.10;99.90
18073;DHT22;9161;47.348;9.648;2024-03-08T18:44:33;5.10;99.90
18073;DHT22;9161;47.348;9.648;2024-03-08T18:49:38;4.80;99.90
18073;DHT22;9161;47.348;9.648;2024-03-08T18:54:41;4.70;99.90
18073;DHT22;9161;47.348;9.648;2024-03-08T18:59:43;4.50;99.90
18073;DHT22;9161;47.348;9.648;2024-03-08T19:04:47;4.60;99.90
18073;DHT22;9161;47.348;9.648;2024-03-08T19:09:49;4.90;99.90
18073;DHT22;9161;47.348;9.648;2024-03-08T19:14:52;4.60;99.90
18073;DHT22;9161;47.348;9.648;2024-03-08T19:19:56;4.40;99.90
18073;DHT22;9161;47.348;9.648;2024-03-08T19:24:59;4.30;99.90
18073;DHT22;9161;47.348;9.648;2024-03-08T19:30:04;4.20;99.90
18073;DHT22;9161;47.348;9.648;2024-03-08T19:35:09;3.90;99.90
18073;DHT22;9161;47.348;9.648;2024-03-08T19:40:14;4.20;99.90
18073;DHT22;9161;47.348;9.648;2024-03-08T19:45:23;4.20;99.90
18073;DHT22;9161;47.348;9.648;2024-03-08T19:50:29;4.20;99.90
18073;DHT22;9161;47.348;9.648;2024-03-08T19:55:33;4.10;99.90
18073;DHT22;9161;47.348;9.648;2024-03-08T20:00:36;4.10;99.90
18073;DHT22;9161;47.348;9.648;2024-03-08T20:05:41;4.20;99.90
18073;DHT22;9161;47.348;9.648;2024-03-08T20:10:45;4.20;99.90
18073;DHT22;9161;47.348;9.648;2024-03-08T20:15:48;4.10;99.90
18073;DHT22;9161;47.348;9.648;2024-03-08T20:20:56;4.10;99.90
18073;DHT22;9161;47.348;9.648;2024-03-08T20:25:58;4.20;99.90
18073;DHT22;9161;47.348;9.648;2024-03-08T20:31:02;4.30;99.90
18073;DHT22;9161;47.348;9.648;2024-03-08T20:36:07;4.40;99.90
18073;DHT22;9161;47.348;9.648;2024-03-08T20:41:11;4.60;99.90
18073;DHT22;9161;47.348;9.648;2024-03-08T20:46:17;4.50;99.90
18073;DHT22;9161;47.348;9.648;2024-03-08T20:51:21;4.40;99.90
18073;DHT22;9161;47.348;9.648;2024-03-08T20:56:23;4.30;99.90
18073;DHT22;9161;47.348;9.648;2024-03-08T21:01:27;4.10;99.90
18073;DHT22;9161;47.348;9.648;2024-03-08T21:06:35;4.00;99.90
18073;DHT22;9161;47.348;9.648;2024-03-08T21:11:37;3.90;99.90
18073;DHT22;9161;47.348;9.648;2024-03-08T21:16:40;3.90;99.90
18073;DHT22;9161;47.348;9.648;2024-03-08T21:21:45;3.90;99.90
18073;DHT22;9161;47.348;9.648;2024-03-08T21:26:50;3.70;99.90
18073;DHT22;9161;47.348;9.648;2024-03-08T21:31:53;4.10;99.90
18073;DHT22;9161;47.348;9.648;2024-03-08T21:36:58;3.90;99.90
18073;DHT22;9161;47.348;9.648;2024-03-08T21:42:01;4.10;99.90
18073;DHT22;9161;47.348;9.648;2024-03-08T21:47:04;3.90;99.90
18073;DHT22;9161;47.348;9.648;2024-03-08T21:52:08;3.80;99.90
18073;DHT22;9161;47.348;9.648;2024-03-08T21:57:10;3.90;99.90
18073;DHT22;9161;47.348;9.648;2024-03-08T22:02:12;3.70;99.90
18073;DHT22;9161;47.348;9.648;2024-03-08T22:07:16;3.80;99.90
18073;DHT22;9161;47.348;9.648;2024-03-08T22:12:19;3.90;99.90
18073;DHT22;9161;47.348;9.648;2024-03-08T22:17:21;4.00;99.90
18073;DHT22;9161;47.348;9.648;2024-03-08T22:22:27;4.20;99.90
18073;DHT22;9161;47.348;9.648;2024-03-08T22:27:30;4.40;99.90
18073;DHT22;9161;47.348;9.648;2024-03-08T22:32:33;4.40;99.90
18073;DHT22;9161;47.348;9.648;2024-03-08T22:37:36;4.50;99.90
18073;DHT22;9161;47.348;9.648;2024-03-08T22:42:40;4.50;99.90
18073;DHT22;9161;47.348;9.648;2024-03-08T22:47:43;4.60;99.90
18073;DHT22;9161;47.348;9.648;2024-03-08T22:52:48;4.80;99.90
18073;DHT22;9161;47.348;9.648;2024-03-08T22:57:53;4.80;99.90
18073;DHT22;9161;47.348;9.648;2024-03-08T23:02:57;4.90;99.90
18073;DHT22;9161;47.348;9.648;2024-03-08T23:08:00;4.90;99.90
18073;DHT22;9161;47.348;9.648;2024-03-08T23:13:05;5.10;99.90
18073;DHT22;9161;47.348;9.648;2024-03-08T23:18:10;5.10;99.90
18073;DHT22;9161;47.348;9.648;2024-03-08T23:23:14;5.40;99.90
18073;DHT22;9161;47.348;9.648;2024-03-08T23:28:17;5.40;99.90
18073;DHT22;9161;47.348;9.648;2024-03-08T23:33:20;5.40;99.90
18073;DHT22;9161;47.348;9.648;2024-03-08T23:38:31;5.50;99.90
18073;DHT22;9161;47.348;9.648;2024-03-08T23:43:34;5.50;99.90
18073;DHT22;9161;47.348;9.648;2024-03-08T23:48:38;5.60;99.90
18073;DHT22;9161;47.348;9.648;2024-03-08T23:53:42;5.60;99.90
18073;DHT22;9161;47.348;9.648;2024-03-08T23:58:45;5.60;99.90
